Elmwood Park, New Jersey
Current Conditions -  °F | °C
As of 12:51 AM on Monday 26 Jan 2015 (Local Time) from KTEB Reporting Station
Overcast Overcast  
Wind Chill: 19°   Ceiling: 7000
Heat Index: 27°   Visibility: 10mi
Dew Point:   Wind: 7mph
Humidity: 43%   Direction: 30°NNE
Pressure: 30"   Gusts: NA
Location:  40.9°N, 74.12°W
Report Text: KTEB 260551Z 03006KT 10SM SCT048 OVC070 M03/M14 A3000 RMK AO2 SLP159 T10281139 10011 21028 53008 $
Loading
Personal Weather Stations






























Interactive Weather Map New forecast layout! Learn more

10-Day Weather Forecast

Advertisements
Track Severe Weather on mobile